Detall de PIREP

Printer-friendly versionPDF version

[2014/01/11 17:53:00]
Flight IATA:CT2301
Pilot Number:044
Company ICAO:CAT
Aircraft Type:AT72/F
PAX:16
Departing Airport: LIBD
Destination Airport: LIEA
Alternate Airport:LIEO
Online: VATSIM
Route:TOPNO P748 BUMOK M742 SOR/N250F160 M603 PNZ/N250F150 M603 MOROB
Flight Level:F170
No Slew and time accel
No pause
Crash detect
Detect pilot in Cockpit between each 30 and 45 minutes
17:53 Zero fuel Weight: 39663 Lbs, Fuel Weight: 5612 Lbs
17:53 VATSIM:LIBD 111720Z 14003KT 3000 BR SCT030 10/10 Q1022
17:53 VATSIM:LIEA 111720Z 06004KT CAVOK 12/09 Q1021
17:53 VOICE CATALONIAN
17:54 Parking Brakes off
18:02 Take-off
18:02 Take off Weight: 45187 Lbs
18:02 Wind: 174º @ 002 Knots Heading: 068º
18:02 POS N41º 08´ 20´´ E016º 45´ 44´´
18:02 Gear Up: 130 Knots
18:02 Flaps:1 at 130 Knots
18:02 Gear Down: 129 Knots
18:03 Flaps:0 at 133 Knots
18:04 Gear Up: 151 Knots
18:14 TOC
18:14 Fuel Weight: 5136 Lb
18:17 Wind:195º@007 Knots Heading: 247º Ground Speed: 273 Knots Altitude 17240 ft
18:32 Wind:064º@000 Knots Heading: 259º Ground Speed: 277 Knots Altitude 17240 ft
18:41 TOD
18:41 Fuel Weight: 4343 Lb
18:47 Wind:006º@003 Knots Heading: 290º Ground Speed: 280 Knots Altitude 16250 ft
19:02 Wind:044º@007 Knots Heading: 266º Ground Speed: 287 Knots Altitude 15249 ft
19:17 Wind:133º@005 Knots Heading: 264º Ground Speed: 289 Knots Altitude 15242 ft
19:32 Wind:080º@003 Knots Heading: 265º Ground Speed: 263 Knots Altitude 9146 ft
19:40 Flaps:1 at 151 Knots
19:43 Flaps:2 at 129 Knots
19:45 Gear Down: 123 Knots
19:47 Wind:059º@000 Knots Heading: 203º Ground Speed: 123 Knots Altitude 1309 ft
19:49 TouchDown:Rate -66 ft/min Speed: 95 Knots
19:49 VATSIM:LIEA 111920Z 00000KT CAVOK 10/09 Q1021
19:49 Land
19:49 Wind:052º@001 Knots
19:49 Heading: 203º
19:49 Flight Duration: 01:47
19:49 Landing Weight: 42287 Lbs
19:49 POS N40º 37´ 47´´ E008º 17´ 22´´
19:52 Parking brakes on
19:52 Block to Block Duration: 01:58
19:52 Final Fuel: 2599 Lbls
19:52 Spent Fuel: 3013 Lbls
19:52 Flight Length: 451 NM
19:52 TOD Land Length: 289 NM

Exportar CSV

Powered by Drupal - Modified by Danger4k